Portland, PA (18351)

7:11 PM EDT on March 28, 2015 (GMT -0400)
Walnut Valley | | Change Station
CLOSE
Current Station
Personal Weather Station
Location: Blairstown, NJ
Elevation: 545 ft
Nearby Weather Stations

Elev 545 ft 40.98 °N, 75.03 °W | Updated 3 minutes ago

Overcast
Overcast
27.0 °F
Feels Like 27 °F
N
2.0
Wind Variable Wind from South
Gusts 6.0 mph

Today
High -- | Low -- °F
--% Chance of Precip.
Yesterday
High -- | Low -- °F
Precip. -- in
6:50 AM 7:20 PM
Waxing Gibbous, 66% visible
Pressure 29.99 in
Visibility 9.0 miles
Clouds Mostly Cloudy 5500 ft
Overcast 7000 ft
Windchill 27 °F
Dew Point 10 °F
Humidity 48%
Rainfall 0.00 in
Snow Depth Not available.
UV 0 out of 12
Pollen 8.80 out of 12
Air Quality Not available.
Flu Activity Not available.
METAR KMPO 282253Z AUTO 33016G26KT 9SM BKN055 OVC070 M07/M13 A2991 RMK AO2 PK WND 31031/2156 UPB38E47 SLP156 P0000 T10671133

More Conditions Fewer Conditions

Pressure 29.99 in
Visibility 9.0 miles
Clouds Mostly Cloudy 5500 ft
Overcast 7000 ft
Windchill 27 °F
Dew Point 10 °F
Humidity 48%
Rainfall 0.00 in
Snow Depth Not available.
UV 0 out of 12
Pollen 8.80 out of 12
Air Quality Not available.
Flu Activity Not available.
METAR KMPO 282253Z AUTO 33016G26KT 9SM BKN055 OVC070 M07/M13 A2991 RMK AO2 PK WND 31031/2156 UPB38E47 SLP156 P0000 T10671133

More Conditions Fewer Conditions

10-Day Weather Forecast

Almanac

Astronomy

Mar. 28, 2015 Rise Set
Actual Time
Civil Twilight
Nautical Twilight
Astronomical Twilight
Moon
Length of Visible Light
Length of Day
Tomorrow will be .
, % of the Moon is Illuminated

Today's Extremes

State Highs State Lows

Community

WunderPhotos

Upload Photos

1,809,124 photos uploaded!

WunderBlogs® & News

Nearby

Air Quality

  Air Quality AQ Index Pollutant
Not available.

Snow Depth

Station Depth Elevation

Earthquake Activity

City Distance Mag. Time & Date
Minimum magnitude displayed is 2.5.

Coastal Water Temperatures

Place Temperature

Stations

Nearby Weather Stations

Station Location Temp. Windchill Dew Point Humidity Wind Precip. Elev Updated Type